logo
Search for airport 
image banner adimage banner adimage banner ad
image banner ad

MMGAB - Ganaderia Cimarron

Located in San Buenaventura, Mexico

ICAO - , IATA -

Data provided by Airmate  

General information

Coordinates: N28°18'39" W102°24'9"
Elevation is 4790 feet MSL.
Magnetic variation is 5° East
View others Airports in Coahuila

Operational data

Special qualification required
Current time UTC:
Current local time:
Weather at : - ( 0 km )
METAR: PAKF 180745Z AUTO 31019G29KT 2SM -SN BR OVC012 01/M01 A2957 RMK AO2 PK WND 31034/0734 P0001 FZRANO
View NOTAMs / SUP AIP / TFR affecting this airport [VIEW]
Communications frequencies: [VIEW]

Runways:

RWY identifierQFULength (ft)Width (ft)SurfaceLDA (ft)
0771°349287DIRT
25251°349287DIRT

Airport contact information

Address: San Buenaventura Mexico

Satellite view of MMGAB